sensor_id;sensor_type;location;lat;lon;timestamp;P1;durP1;ratioP1;P2;durP2;ratioP2
10851;SDS011;5479;52.046;6.314;2023-02-25T00:01:13;8.97;;;1.90;;
10851;SDS011;5479;52.046;6.314;2023-02-25T00:03:41;10.97;;;2.47;;
10851;SDS011;5479;52.046;6.314;2023-02-25T00:06:10;10.57;;;2.10;;
10851;SDS011;5479;52.046;6.314;2023-02-25T00:08:41;8.73;;;2.10;;
10851;SDS011;5479;52.046;6.314;2023-02-25T00:11:10;7.63;;;2.47;;
10851;SDS011;5479;52.046;6.314;2023-02-25T00:13:41;7.70;;;2.33;;
10851;SDS011;5479;52.046;6.314;2023-02-25T00:16:10;8.60;;;2.07;;
10851;SDS011;5479;52.046;6.314;2023-02-25T00:18:39;8.40;;;2.00;;
10851;SDS011;5479;52.046;6.314;2023-02-25T00:21:09;10.40;;;1.93;;
10851;SDS011;5479;52.046;6.314;2023-02-25T00:23:41;8.40;;;2.20;;
10851;SDS011;5479;52.046;6.314;2023-02-25T00:26:09;5.27;;;1.87;;
10851;SDS011;5479;52.046;6.314;2023-02-25T00:28:38;7.87;;;1.90;;
10851;SDS011;5479;52.046;6.314;2023-02-25T00:31:09;8.47;;;2.37;;
10851;SDS011;5479;52.046;6.314;2023-02-25T00:33:40;8.53;;;2.00;;
10851;SDS011;5479;52.046;6.314;2023-02-25T00:36:09;8.83;;;2.43;;
10851;SDS011;5479;52.046;6.314;2023-02-25T00:38:40;7.60;;;2.00;;
10851;SDS011;5479;52.046;6.314;2023-02-25T00:41:08;7.20;;;2.33;;
10851;SDS011;5479;52.046;6.314;2023-02-25T00:43:38;6.60;;;2.17;;
10851;SDS011;5479;52.046;6.314;2023-02-25T00:46:09;8.93;;;2.10;;
10851;SDS011;5479;52.046;6.314;2023-02-25T00:48:37;7.53;;;1.97;;
10851;SDS011;5479;52.046;6.314;2023-02-25T00:51:06;9.70;;;2.50;;
10851;SDS011;5479;52.046;6.314;2023-02-25T00:53:36;8.93;;;2.60;;
10851;SDS011;5479;52.046;6.314;2023-02-25T00:56:05;8.07;;;2.07;;
10851;SDS011;5479;52.046;6.314;2023-02-25T00:58:34;7.77;;;1.97;;
10851;SDS011;5479;52.046;6.314;2023-02-25T01:01:03;8.70;;;1.90;;
10851;SDS011;5479;52.046;6.314;2023-02-25T01:03:34;11.43;;;2.13;;
10851;SDS011;5479;52.046;6.314;2023-02-25T01:06:02;10.90;;;2.37;;
10851;SDS011;5479;52.046;6.314;2023-02-25T01:08:30;11.00;;;2.20;;
10851;SDS011;5479;52.046;6.314;2023-02-25T01:10:58;9.30;;;2.60;;
10851;SDS011;5479;52.046;6.314;2023-02-25T01:13:27;9.47;;;2.40;;
10851;SDS011;5479;52.046;6.314;2023-02-25T01:15:55;10.33;;;2.33;;
10851;SDS011;5479;52.046;6.314;2023-02-25T01:18:23;8.27;;;2.20;;
10851;SDS011;5479;52.046;6.314;2023-02-25T01:20:52;6.67;;;2.00;;
10851;SDS011;5479;52.046;6.314;2023-02-25T01:23:23;7.70;;;2.17;;
10851;SDS011;5479;52.046;6.314;2023-02-25T01:25:51;11.40;;;2.73;;
10851;SDS011;5479;52.046;6.314;2023-02-25T01:28:19;12.70;;;2.60;;
10851;SDS011;5479;52.046;6.314;2023-02-25T01:30:47;11.20;;;2.67;;
10851;SDS011;5479;52.046;6.314;2023-02-25T01:33:15;10.70;;;2.60;;
10851;SDS011;5479;52.046;6.314;2023-02-25T01:35:43;8.83;;;2.27;;
10851;SDS011;5479;52.046;6.314;2023-02-25T01:38:12;14.60;;;2.97;;
10851;SDS011;5479;52.046;6.314;2023-02-25T01:40:40;9.47;;;2.67;;
10851;SDS011;5479;52.046;6.314;2023-02-25T01:43:11;11.57;;;2.77;;
10851;SDS011;5479;52.046;6.314;2023-02-25T01:45:41;11.23;;;2.33;;
10851;SDS011;5479;52.046;6.314;2023-02-25T01:48:11;10.00;;;2.70;;
10851;SDS011;5479;52.046;6.314;2023-02-25T01:50:47;8.20;;;2.60;;
10851;SDS011;5479;52.046;6.314;2023-02-25T01:53:20;7.13;;;2.23;;
10851;SDS011;5479;52.046;6.314;2023-02-25T01:55:50;9.20;;;2.47;;
10851;SDS011;5479;52.046;6.314;2023-02-25T01:58:18;9.17;;;2.33;;
10851;SDS011;5479;52.046;6.314;2023-02-25T02:00:48;9.97;;;2.53;;
10851;SDS011;5479;52.046;6.314;2023-02-25T02:03:21;9.00;;;2.40;;
10851;SDS011;5479;52.046;6.314;2023-02-25T02:05:55;9.20;;;2.50;;
10851;SDS011;5479;52.046;6.314;2023-02-25T02:08:31;8.37;;;2.27;;
10851;SDS011;5479;52.046;6.314;2023-02-25T02:11:00;10.50;;;3.10;;
10851;SDS011;5479;52.046;6.314;2023-02-25T02:13:29;8.20;;;2.60;;
10851;SDS011;5479;52.046;6.314;2023-02-25T02:16:11;8.23;;;2.23;;
10851;SDS011;5479;52.046;6.314;2023-02-25T02:18:48;7.10;;;1.90;;
10851;SDS011;5479;52.046;6.314;2023-02-25T02:21:27;10.50;;;2.97;;
10851;SDS011;5479;52.046;6.314;2023-02-25T02:27:19;6.57;;;2.00;;
10851;SDS011;5479;52.046;6.314;2023-02-25T02:32:56;9.53;;;2.00;;
10851;SDS011;5479;52.046;6.314;2023-02-25T02:35:32;10.77;;;2.60;;
10851;SDS011;5479;52.046;6.314;2023-02-25T02:38:09;7.57;;;2.07;;
10851;SDS011;5479;52.046;6.314;2023-02-25T02:40:42;11.20;;;2.67;;
10851;SDS011;5479;52.046;6.314;2023-02-25T02:43:19;11.40;;;2.37;;
10851;SDS011;5479;52.046;6.314;2023-02-25T02:45:58;8.53;;;2.23;;
10851;SDS011;5479;52.046;6.314;2023-02-25T02:48:32;9.20;;;2.80;;
10851;SDS011;5479;52.046;6.314;2023-02-25T02:51:06;7.87;;;2.00;;
10851;SDS011;5479;52.046;6.314;2023-02-25T02:53:41;12.20;;;2.00;;
10851;SDS011;5479;52.046;6.314;2023-02-25T02:56:14;9.83;;;2.47;;
10851;SDS011;5479;52.046;6.314;2023-02-25T02:58:45;11.00;;;2.93;;
10851;SDS011;5479;52.046;6.314;2023-02-25T03:01:19;8.93;;;2.57;;
10851;SDS011;5479;52.046;6.314;2023-02-25T03:03:54;8.73;;;2.10;;
10851;SDS011;5479;52.046;6.314;2023-02-25T03:06:27;9.00;;;1.93;;
10851;SDS011;5479;52.046;6.314;2023-02-25T03:09:01;8.70;;;2.27;;
10851;SDS011;5479;52.046;6.314;2023-02-25T03:11:32;11.73;;;3.10;;
10851;SDS011;5479;52.046;6.314;2023-02-25T03:14:00;6.37;;;1.90;;
10851;SDS011;5479;52.046;6.314;2023-02-25T03:16:29;10.80;;;2.73;;
10851;SDS011;5479;52.046;6.314;2023-02-25T03:19:05;9.30;;;2.50;;
10851;SDS011;5479;52.046;6.314;2023-02-25T03:21:39;9.20;;;2.37;;
10851;SDS011;5479;52.046;6.314;2023-02-25T03:24:12;9.63;;;2.83;;
10851;SDS011;5479;52.046;6.314;2023-02-25T03:26:47;8.40;;;2.07;;
10851;SDS011;5479;52.046;6.314;2023-02-25T03:29:17;7.53;;;2.23;;
10851;SDS011;5479;52.046;6.314;2023-02-25T03:31:49;11.33;;;2.57;;
10851;SDS011;5479;52.046;6.314;2023-02-25T03:34:24;7.60;;;2.10;;
10851;SDS011;5479;52.046;6.314;2023-02-25T03:36:57;8.73;;;2.37;;
10851;SDS011;5479;52.046;6.314;2023-02-25T03:39:29;12.10;;;2.70;;
10851;SDS011;5479;52.046;6.314;2023-02-25T03:42:01;9.37;;;2.40;;
10851;SDS011;5479;52.046;6.314;2023-02-25T03:44:32;11.50;;;2.53;;
10851;SDS011;5479;52.046;6.314;2023-02-25T03:47:04;11.33;;;2.60;;
10851;SDS011;5479;52.046;6.314;2023-02-25T03:49:39;11.83;;;2.97;;
10851;SDS011;5479;52.046;6.314;2023-02-25T03:52:13;8.70;;;2.67;;
10851;SDS011;5479;52.046;6.314;2023-02-25T03:54:43;11.37;;;3.13;;
10851;SDS011;5479;52.046;6.314;2023-02-25T03:57:16;9.30;;;2.80;;
10851;SDS011;5479;52.046;6.314;2023-02-25T03:59:45;12.23;;;2.80;;
10851;SDS011;5479;52.046;6.314;2023-02-25T04:02:13;9.90;;;2.63;;
10851;SDS011;5479;52.046;6.314;2023-02-25T04:04:44;12.40;;;2.70;;
10851;SDS011;5479;52.046;6.314;2023-02-25T04:07:12;10.43;;;2.80;;
10851;SDS011;5479;52.046;6.314;2023-02-25T04:09:40;8.37;;;2.47;;
10851;SDS011;5479;52.046;6.314;2023-02-25T04:12:08;15.50;;;3.30;;
10851;SDS011;5479;52.046;6.314;2023-02-25T04:14:36;13.13;;;3.47;;
10851;SDS011;5479;52.046;6.314;2023-02-25T04:17:05;11.07;;;3.20;;
10851;SDS011;5479;52.046;6.314;2023-02-25T04:19:33;12.00;;;3.13;;
10851;SDS011;5479;52.046;6.314;2023-02-25T04:22:02;9.40;;;2.37;;
10851;SDS011;5479;52.046;6.314;2023-02-25T04:24:31;18.57;;;3.07;;
10851;SDS011;5479;52.046;6.314;2023-02-25T04:26:59;11.13;;;2.40;;
10851;SDS011;5479;52.046;6.314;2023-02-25T04:29:28;9.63;;;2.60;;
10851;SDS011;5479;52.046;6.314;2023-02-25T04:31:56;9.70;;;2.80;;
10851;SDS011;5479;52.046;6.314;2023-02-25T04:34:24;11.93;;;2.83;;
10851;SDS011;5479;52.046;6.314;2023-02-25T04:36:52;10.83;;;2.93;;
10851;SDS011;5479;52.046;6.314;2023-02-25T04:39:22;12.27;;;2.67;;
10851;SDS011;5479;52.046;6.314;2023-02-25T04:41:50;12.23;;;3.03;;
10851;SDS011;5479;52.046;6.314;2023-02-25T04:44:18;10.60;;;2.87;;
10851;SDS011;5479;52.046;6.314;2023-02-25T04:46:46;11.47;;;3.00;;
10851;SDS011;5479;52.046;6.314;2023-02-25T04:49:17;8.07;;;2.30;;
10851;SDS011;5479;52.046;6.314;2023-02-25T04:51:46;14.10;;;3.27;;
10851;SDS011;5479;52.046;6.314;2023-02-25T04:54:16;12.17;;;3.33;;
10851;SDS011;5479;52.046;6.314;2023-02-25T04:56:47;12.77;;;3.17;;
10851;SDS011;5479;52.046;6.314;2023-02-25T04:59:15;12.67;;;3.00;;
10851;SDS011;5479;52.046;6.314;2023-02-25T05:01:44;11.90;;;2.73;;
10851;SDS011;5479;52.046;6.314;2023-02-25T05:04:12;10.13;;;3.07;;
10851;SDS011;5479;52.046;6.314;2023-02-25T05:06:40;13.67;;;2.73;;
10851;SDS011;5479;52.046;6.314;2023-02-25T05:09:09;9.90;;;2.40;;
10851;SDS011;5479;52.046;6.314;2023-02-25T05:11:37;11.63;;;2.93;;
10851;SDS011;5479;52.046;6.314;2023-02-25T05:14:06;9.80;;;2.67;;
10851;SDS011;5479;52.046;6.314;2023-02-25T05:16:34;11.17;;;2.80;;
10851;SDS011;5479;52.046;6.314;2023-02-25T05:19:03;12.10;;;3.37;;
10851;SDS011;5479;52.046;6.314;2023-02-25T05:21:31;13.03;;;3.27;;
10851;SDS011;5479;52.046;6.314;2023-02-25T05:24:00;13.73;;;3.07;;
10851;SDS011;5479;52.046;6.314;2023-02-25T05:26:28;14.37;;;3.20;;
10851;SDS011;5479;52.046;6.314;2023-02-25T05:28:56;13.40;;;2.90;;
10851;SDS011;5479;52.046;6.314;2023-02-25T05:31:25;15.13;;;3.10;;
10851;SDS011;5479;52.046;6.314;2023-02-25T05:33:53;12.97;;;3.07;;
10851;SDS011;5479;52.046;6.314;2023-02-25T05:36:21;10.10;;;2.73;;
10851;SDS011;5479;52.046;6.314;2023-02-25T05:38:52;8.63;;;2.70;;
10851;SDS011;5479;52.046;6.314;2023-02-25T05:41:20;10.93;;;2.77;;
10851;SDS011;5479;52.046;6.314;2023-02-25T05:43:51;17.00;;;2.83;;
10851;SDS011;5479;52.046;6.314;2023-02-25T05:46:19;14.43;;;2.60;;
10851;SDS011;5479;52.046;6.314;2023-02-25T05:48:49;12.30;;;2.63;;
10851;SDS011;5479;52.046;6.314;2023-02-25T05:51:17;11.13;;;2.77;;
10851;SDS011;5479;52.046;6.314;2023-02-25T05:53:48;10.53;;;2.30;;
10851;SDS011;5479;52.046;6.314;2023-02-25T05:56:18;11.07;;;3.37;;
10851;SDS011;5479;52.046;6.314;2023-02-25T05:58:48;11.33;;;2.77;;
10851;SDS011;5479;52.046;6.314;2023-02-25T06:01:18;13.67;;;3.20;;
10851;SDS011;5479;52.046;6.314;2023-02-25T06:03:49;13.27;;;2.70;;
10851;SDS011;5479;52.046;6.314;2023-02-25T06:06:19;8.53;;;3.00;;
10851;SDS011;5479;52.046;6.314;2023-02-25T06:08:48;12.90;;;3.20;;
10851;SDS011;5479;52.046;6.314;2023-02-25T06:11:17;9.70;;;2.60;;
10851;SDS011;5479;52.046;6.314;2023-02-25T06:13:47;9.03;;;2.47;;
10851;SDS011;5479;52.046;6.314;2023-02-25T06:16:18;8.87;;;2.40;;
10851;SDS011;5479;52.046;6.314;2023-02-25T06:18:46;12.20;;;2.90;;
10851;SDS011;5479;52.046;6.314;2023-02-25T06:21:19;12.77;;;2.87;;
10851;SDS011;5479;52.046;6.314;2023-02-25T06:23:46;9.20;;;2.73;;
10851;SDS011;5479;52.046;6.314;2023-02-25T06:26:16;12.37;;;2.83;;
10851;SDS011;5479;52.046;6.314;2023-02-25T06:28:45;10.43;;;2.60;;
10851;SDS011;5479;52.046;6.314;2023-02-25T06:31:13;8.63;;;2.83;;
10851;SDS011;5479;52.046;6.314;2023-02-25T06:33:44;10.50;;;2.60;;
10851;SDS011;5479;52.046;6.314;2023-02-25T06:36:12;9.03;;;2.77;;
10851;SDS011;5479;52.046;6.314;2023-02-25T06:38:42;11.27;;;2.90;;
10851;SDS011;5479;52.046;6.314;2023-02-25T06:41:12;8.47;;;2.30;;
10851;SDS011;5479;52.046;6.314;2023-02-25T06:43:42;9.30;;;2.23;;
10851;SDS011;5479;52.046;6.314;2023-02-25T06:46:11;11.73;;;2.27;;
10851;SDS011;5479;52.046;6.314;2023-02-25T06:48:40;13.17;;;2.57;;
10851;SDS011;5479;52.046;6.314;2023-02-25T06:51:08;9.63;;;2.43;;
10851;SDS011;5479;52.046;6.314;2023-02-25T06:53:38;8.80;;;2.83;;
10851;SDS011;5479;52.046;6.314;2023-02-25T06:56:09;11.97;;;2.37;;
10851;SDS011;5479;52.046;6.314;2023-02-25T06:58:39;11.57;;;3.27;;
10851;SDS011;5479;52.046;6.314;2023-02-25T07:01:07;11.77;;;2.80;;
10851;SDS011;5479;52.046;6.314;2023-02-25T07:03:36;12.67;;;3.03;;
10851;SDS011;5479;52.046;6.314;2023-02-25T07:06:05;12.07;;;2.83;;
10851;SDS011;5479;52.046;6.314;2023-02-25T07:08:34;9.70;;;2.70;;
10851;SDS011;5479;52.046;6.314;2023-02-25T07:11:11;11.00;;;2.30;;
10851;SDS011;5479;52.046;6.314;2023-02-25T07:13:40;9.60;;;2.87;;
10851;SDS011;5479;52.046;6.314;2023-02-25T07:16:10;8.57;;;2.37;;
10851;SDS011;5479;52.046;6.314;2023-02-25T07:18:38;6.80;;;1.97;;
10851;SDS011;5479;52.046;6.314;2023-02-25T07:21:06;9.67;;;2.27;;
10851;SDS011;5479;52.046;6.314;2023-02-25T07:23:35;13.90;;;3.33;;
10851;SDS011;5479;52.046;6.314;2023-02-25T07:26:03;8.53;;;2.30;;
10851;SDS011;5479;52.046;6.314;2023-02-25T07:28:33;8.43;;;2.33;;
10851;SDS011;5479;52.046;6.314;2023-02-25T07:31:03;8.03;;;1.80;;
10851;SDS011;5479;52.046;6.314;2023-02-25T07:33:35;11.97;;;2.37;;
10851;SDS011;5479;52.046;6.314;2023-02-25T07:36:03;5.00;;;1.83;;
10851;SDS011;5479;52.046;6.314;2023-02-25T07:38:31;6.17;;;2.20;;
10851;SDS011;5479;52.046;6.314;2023-02-25T07:41:02;6.77;;;2.03;;
10851;SDS011;5479;52.046;6.314;2023-02-25T07:43:31;12.00;;;2.83;;
10851;SDS011;5479;52.046;6.314;2023-02-25T07:46:01;12.80;;;3.07;;
10851;SDS011;5479;52.046;6.314;2023-02-25T07:48:29;9.80;;;2.80;;
10851;SDS011;5479;52.046;6.314;2023-02-25T07:51:02;8.83;;;2.40;;
10851;SDS011;5479;52.046;6.314;2023-02-25T07:53:31;5.87;;;1.93;;
10851;SDS011;5479;52.046;6.314;2023-02-25T07:55:59;6.03;;;1.80;;
10851;SDS011;5479;52.046;6.314;2023-02-25T07:58:29;8.57;;;2.00;;
10851;SDS011;5479;52.046;6.314;2023-02-25T08:00:57;5.23;;;2.10;;
10851;SDS011;5479;52.046;6.314;2023-02-25T08:03:30;9.50;;;2.20;;
10851;SDS011;5479;52.046;6.314;2023-02-25T08:05:58;7.40;;;1.60;;
10851;SDS011;5479;52.046;6.314;2023-02-25T08:08:28;8.23;;;2.50;;
10851;SDS011;5479;52.046;6.314;2023-02-25T08:10:56;7.17;;;1.90;;
10851;SDS011;5479;52.046;6.314;2023-02-25T08:13:24;7.47;;;2.30;;
10851;SDS011;5479;52.046;6.314;2023-02-25T08:15:52;7.37;;;2.10;;
10851;SDS011;5479;52.046;6.314;2023-02-25T08:18:20;5.10;;;1.83;;
10851;SDS011;5479;52.046;6.314;2023-02-25T08:20:50;9.57;;;1.80;;
10851;SDS011;5479;52.046;6.314;2023-02-25T08:23:21;5.27;;;1.53;;
10851;SDS011;5479;52.046;6.314;2023-02-25T08:25:53;7.17;;;2.00;;
10851;SDS011;5479;52.046;6.314;2023-02-25T08:28:22;8.27;;;2.10;;
10851;SDS011;5479;52.046;6.314;2023-02-25T08:30:51;7.70;;;1.87;;
10851;SDS011;5479;52.046;6.314;2023-02-25T08:33:19;6.23;;;1.63;;
10851;SDS011;5479;52.046;6.314;2023-02-25T08:35:47;7.07;;;2.03;;
10851;SDS011;5479;52.046;6.314;2023-02-25T08:38:17;4.80;;;1.60;;
10851;SDS011;5479;52.046;6.314;2023-02-25T08:40:46;5.20;;;1.40;;
10851;SDS011;5479;52.046;6.314;2023-02-25T08:43:14;4.93;;;1.40;;
10851;SDS011;5479;52.046;6.314;2023-02-25T08:45:42;4.67;;;1.80;;
10851;SDS011;5479;52.046;6.314;2023-02-25T08:48:10;4.60;;;1.23;;
10851;SDS011;5479;52.046;6.314;2023-02-25T08:50:39;7.57;;;2.30;;
10851;SDS011;5479;52.046;6.314;2023-02-25T08:53:06;8.37;;;1.80;;
10851;SDS011;5479;52.046;6.314;2023-02-25T08:55:37;5.83;;;1.90;;
10851;SDS011;5479;52.046;6.314;2023-02-25T08:58:25;5.07;;;1.60;;
10851;SDS011;5479;52.046;6.314;2023-02-25T09:00:54;5.93;;;1.60;;
10851;SDS011;5479;52.046;6.314;2023-02-25T09:03:22;3.93;;;1.13;;
10851;SDS011;5479;52.046;6.314;2023-02-25T09:05:50;5.00;;;1.60;;
10851;SDS011;5479;52.046;6.314;2023-02-25T09:08:19;2.40;;;0.93;;
10851;SDS011;5479;52.046;6.314;2023-02-25T09:11:01;3.60;;;1.27;;
10851;SDS011;5479;52.046;6.314;2023-02-25T09:13:31;2.10;;;0.93;;
10851;SDS011;5479;52.046;6.314;2023-02-25T09:15:59;3.03;;;1.20;;
10851;SDS011;5479;52.046;6.314;2023-02-25T09:18:28;4.97;;;1.80;;
10851;SDS011;5479;52.046;6.314;2023-02-25T09:20:56;2.73;;;1.20;;
10851;SDS011;5479;52.046;6.314;2023-02-25T09:23:26;1.20;;;0.67;;
10851;SDS011;5479;52.046;6.314;2023-02-25T09:25:55;4.43;;;1.30;;
10851;SDS011;5479;52.046;6.314;2023-02-25T09:28:26;5.00;;;1.30;;
10851;SDS011;5479;52.046;6.314;2023-02-25T09:30:55;1.97;;;0.97;;
10851;SDS011;5479;52.046;6.314;2023-02-25T09:33:23;3.40;;;1.10;;
10851;SDS011;5479;52.046;6.314;2023-02-25T09:35:51;4.23;;;1.23;;
10851;SDS011;5479;52.046;6.314;2023-02-25T09:38:19;3.60;;;1.20;;
10851;SDS011;5479;52.046;6.314;2023-02-25T09:40:50;4.30;;;1.37;;
10851;SDS011;5479;52.046;6.314;2023-02-25T09:43:19;3.43;;;1.10;;
10851;SDS011;5479;52.046;6.314;2023-02-25T09:46:03;3.53;;;1.17;;
10851;SDS011;5479;52.046;6.314;2023-02-25T09:48:34;4.33;;;1.30;;
10851;SDS011;5479;52.046;6.314;2023-02-25T09:51:10;3.40;;;1.53;;
10851;SDS011;5479;52.046;6.314;2023-02-25T09:53:46;3.33;;;0.90;;
10851;SDS011;5479;52.046;6.314;2023-02-25T09:56:20;3.47;;;1.00;;
10851;SDS011;5479;52.046;6.314;2023-02-25T09:58:54;5.17;;;1.57;;
10851;SDS011;5479;52.046;6.314;2023-02-25T10:01:28;2.63;;;1.07;;
10851;SDS011;5479;52.046;6.314;2023-02-25T10:04:02;4.87;;;1.23;;
10851;SDS011;5479;52.046;6.314;2023-02-25T10:06:35;4.63;;;1.50;;
10851;SDS011;5479;52.046;6.314;2023-02-25T10:09:08;4.87;;;1.30;;
10851;SDS011;5479;52.046;6.314;2023-02-25T10:11:45;4.63;;;1.43;;
10851;SDS011;5479;52.046;6.314;2023-02-25T10:14:25;5.20;;;1.87;;
10851;SDS011;5479;52.046;6.314;2023-02-25T10:17:17;4.23;;;1.80;;
10851;SDS011;5479;52.046;6.314;2023-02-25T10:19:57;4.70;;;1.50;;
10851;SDS011;5479;52.046;6.314;2023-02-25T10:22:44;5.07;;;1.47;;
10851;SDS011;5479;52.046;6.314;2023-02-25T10:25:19;7.23;;;1.80;;
10851;SDS011;5479;52.046;6.314;2023-02-25T10:27:50;6.10;;;1.53;;
10851;SDS011;5479;52.046;6.314;2023-02-25T10:30:24;6.20;;;1.67;;
10851;SDS011;5479;52.046;6.314;2023-02-25T10:32:57;4.90;;;1.60;;
10851;SDS011;5479;52.046;6.314;2023-02-25T10:35:31;5.37;;;1.77;;
10851;SDS011;5479;52.046;6.314;2023-02-25T10:38:04;6.60;;;1.70;;
10851;SDS011;5479;52.046;6.314;2023-02-25T10:40:32;5.37;;;1.90;;
10851;SDS011;5479;52.046;6.314;2023-02-25T10:43:05;8.03;;;2.10;;
10851;SDS011;5479;52.046;6.314;2023-02-25T10:45:44;5.27;;;2.00;;
10851;SDS011;5479;52.046;6.314;2023-02-25T10:48:18;6.57;;;1.70;;
10851;SDS011;5479;52.046;6.314;2023-02-25T10:51:00;5.00;;;1.43;;
10851;SDS011;5479;52.046;6.314;2023-02-25T10:53:31;6.50;;;1.87;;
10851;SDS011;5479;52.046;6.314;2023-02-25T10:55:59;7.43;;;1.70;;
10851;SDS011;5479;52.046;6.314;2023-02-25T10:58:36;6.17;;;1.93;;
10851;SDS011;5479;52.046;6.314;2023-02-25T11:01:08;4.67;;;1.30;;
10851;SDS011;5479;52.046;6.314;2023-02-25T11:03:45;5.40;;;1.40;;
10851;SDS011;5479;52.046;6.314;2023-02-25T11:06:22;5.20;;;1.20;;
10851;SDS011;5479;52.046;6.314;2023-02-25T11:08:54;4.83;;;1.50;;
10851;SDS011;5479;52.046;6.314;2023-02-25T11:11:24;4.90;;;1.53;;
10851;SDS011;5479;52.046;6.314;2023-02-25T11:13:58;4.27;;;1.30;;
10851;SDS011;5479;52.046;6.314;2023-02-25T11:16:28;7.43;;;1.90;;
10851;SDS011;5479;52.046;6.314;2023-02-25T11:19:03;4.93;;;1.50;;
10851;SDS011;5479;52.046;6.314;2023-02-25T11:21:40;6.13;;;1.90;;
10851;SDS011;5479;52.046;6.314;2023-02-25T11:24:11;7.43;;;2.07;;
10851;SDS011;5479;52.046;6.314;2023-02-25T11:26:42;7.97;;;1.90;;
10851;SDS011;5479;52.046;6.314;2023-02-25T11:29:12;4.13;;;1.23;;
10851;SDS011;5479;52.046;6.314;2023-02-25T11:31:44;7.50;;;2.27;;
10851;SDS011;5479;52.046;6.314;2023-02-25T11:34:20;5.67;;;1.47;;
10851;SDS011;5479;52.046;6.314;2023-02-25T11:36:49;5.83;;;1.60;;
10851;SDS011;5479;52.046;6.314;2023-02-25T11:39:18;7.73;;;1.77;;
10851;SDS011;5479;52.046;6.314;2023-02-25T11:41:48;7.53;;;1.80;;
10851;SDS011;5479;52.046;6.314;2023-02-25T11:44:22;6.57;;;1.97;;
10851;SDS011;5479;52.046;6.314;2023-02-25T11:46:56;7.50;;;1.93;;
10851;SDS011;5479;52.046;6.314;2023-02-25T11:49:33;7.40;;;2.50;;
10851;SDS011;5479;52.046;6.314;2023-02-25T11:52:08;7.70;;;2.10;;
10851;SDS011;5479;52.046;6.314;2023-02-25T11:54:43;6.60;;;2.00;;
10851;SDS011;5479;52.046;6.314;2023-02-25T11:57:19;6.43;;;1.90;;
10851;SDS011;5479;52.046;6.314;2023-02-25T11:59:53;5.80;;;2.00;;
10851;SDS011;5479;52.046;6.314;2023-02-25T12:02:35;9.27;;;2.20;;
10851;SDS011;5479;52.046;6.314;2023-02-25T12:05:22;3.90;;;1.50;;
10851;SDS011;5479;52.046;6.314;2023-02-25T12:08:02;5.20;;;1.60;;
10851;SDS011;5479;52.046;6.314;2023-02-25T12:17:11;6.40;;;1.60;;
10851;SDS011;5479;52.046;6.314;2023-02-25T12:26:19;4.10;;;1.47;;
10851;SDS011;5479;52.046;6.314;2023-02-25T12:29:01;6.60;;;1.83;;
10851;SDS011;5479;52.046;6.314;2023-02-25T12:31:46;4.23;;;1.57;;
10851;SDS011;5479;52.046;6.314;2023-02-25T12:34:53;4.93;;;1.43;;
10851;SDS011;5479;52.046;6.314;2023-02-25T12:37:56;5.67;;;1.50;;
10851;SDS011;5479;52.046;6.314;2023-02-25T12:40:40;3.20;;;1.47;;
10851;SDS011;5479;52.046;6.314;2023-02-25T12:43:28;4.87;;;1.30;;
10851;SDS011;5479;52.046;6.314;2023-02-25T12:46:19;3.27;;;1.23;;
10851;SDS011;5479;52.046;6.314;2023-02-25T12:52:13;4.63;;;1.33;;
10851;SDS011;5479;52.046;6.314;2023-02-25T12:58:02;3.83;;;1.60;;
10851;SDS011;5479;52.046;6.314;2023-02-25T13:00:48;4.43;;;1.23;;
10851;SDS011;5479;52.046;6.314;2023-02-25T13:03:33;4.00;;;1.47;;
10851;SDS011;5479;52.046;6.314;2023-02-25T13:06:20;4.20;;;1.20;;
10851;SDS011;5479;52.046;6.314;2023-02-25T13:09:17;3.40;;;1.27;;
10851;SDS011;5479;52.046;6.314;2023-02-25T13:12:04;2.60;;;1.03;;
10851;SDS011;5479;52.046;6.314;2023-02-25T13:14:54;4.40;;;1.53;;
10851;SDS011;5479;52.046;6.314;2023-02-25T13:20:46;2.50;;;0.80;;
10851;SDS011;5479;52.046;6.314;2023-02-25T13:23:34;3.93;;;1.07;;
10851;SDS011;5479;52.046;6.314;2023-02-25T13:26:29;2.20;;;1.10;;
10851;SDS011;5479;52.046;6.314;2023-02-25T13:29:17;2.23;;;0.60;;
10851;SDS011;5479;52.046;6.314;2023-02-25T13:32:00;4.20;;;0.97;;
10851;SDS011;5479;52.046;6.314;2023-02-25T13:34:43;2.33;;;0.90;;
10851;SDS011;5479;52.046;6.314;2023-02-25T13:37:19;6.37;;;1.10;;
10851;SDS011;5479;52.046;6.314;2023-02-25T13:40:14;1.83;;;0.70;;
10851;SDS011;5479;52.046;6.314;2023-02-25T13:42:53;3.27;;;0.80;;
10851;SDS011;5479;52.046;6.314;2023-02-25T13:45:32;3.23;;;0.90;;
10851;SDS011;5479;52.046;6.314;2023-02-25T13:48:21;3.10;;;1.00;;
10851;SDS011;5479;52.046;6.314;2023-02-25T13:54:04;4.40;;;1.40;;
10851;SDS011;5479;52.046;6.314;2023-02-25T13:59:53;3.27;;;1.03;;
10851;SDS011;5479;52.046;6.314;2023-02-25T14:02:38;2.50;;;1.10;;
10851;SDS011;5479;52.046;6.314;2023-02-25T14:05:24;4.57;;;1.20;;
10851;SDS011;5479;52.046;6.314;2023-02-25T14:11:10;3.53;;;1.10;;
10851;SDS011;5479;52.046;6.314;2023-02-25T14:13:57;3.70;;;0.93;;
10851;SDS011;5479;52.046;6.314;2023-02-25T14:16:41;2.57;;;0.93;;
10851;SDS011;5479;52.046;6.314;2023-02-25T14:19:29;2.33;;;0.93;;
10851;SDS011;5479;52.046;6.314;2023-02-25T14:22:20;1.93;;;0.83;;
10851;SDS011;5479;52.046;6.314;2023-02-25T14:25:01;3.63;;;1.00;;
10851;SDS011;5479;52.046;6.314;2023-02-25T14:27:42;2.93;;;1.10;;
10851;SDS011;5479;52.046;6.314;2023-02-25T14:30:21;2.57;;;0.90;;
10851;SDS011;5479;52.046;6.314;2023-02-25T14:33:05;3.43;;;1.07;;
10851;SDS011;5479;52.046;6.314;2023-02-25T14:35:48;3.43;;;1.10;;
10851;SDS011;5479;52.046;6.314;2023-02-25T14:38:32;2.83;;;1.27;;
10851;SDS011;5479;52.046;6.314;2023-02-25T14:41:26;5.20;;;1.57;;
10851;SDS011;5479;52.046;6.314;2023-02-25T14:44:00;2.37;;;0.93;;
10851;SDS011;5479;52.046;6.314;2023-02-25T14:46:33;3.13;;;0.90;;
10851;SDS011;5479;52.046;6.314;2023-02-25T14:49:08;3.00;;;1.07;;
10851;SDS011;5479;52.046;6.314;2023-02-25T14:51:46;2.80;;;1.27;;
10851;SDS011;5479;52.046;6.314;2023-02-25T14:58:06;3.30;;;0.90;;
10851;SDS011;5479;52.046;6.314;2023-02-25T15:00:52;4.30;;;1.10;;
10851;SDS011;5479;52.046;6.314;2023-02-25T15:03:47;4.43;;;1.57;;
10851;SDS011;5479;52.046;6.314;2023-02-25T15:06:41;3.13;;;1.20;;
10851;SDS011;5479;52.046;6.314;2023-02-25T15:09:22;3.50;;;0.83;;
10851;SDS011;5479;52.046;6.314;2023-02-25T15:18:20;2.67;;;1.00;;
10851;SDS011;5479;52.046;6.314;2023-02-25T15:24:03;3.10;;;1.10;;
10851;SDS011;5479;52.046;6.314;2023-02-25T15:26:42;6.67;;;1.10;;
10851;SDS011;5479;52.046;6.314;2023-02-25T15:32:20;3.00;;;1.13;;
10851;SDS011;5479;52.046;6.314;2023-02-25T15:34:54;2.87;;;1.10;;
10851;SDS011;5479;52.046;6.314;2023-02-25T15:37:29;4.23;;;1.00;;
10851;SDS011;5479;52.046;6.314;2023-02-25T15:49:20;5.63;;;1.47;;
10851;SDS011;5479;52.046;6.314;2023-02-25T15:51:54;7.90;;;1.50;;
10851;SDS011;5479;52.046;6.314;2023-02-25T15:57:32;3.13;;;1.00;;
10851;SDS011;5479;52.046;6.314;2023-02-25T16:03:24;5.30;;;1.50;;
10851;SDS011;5479;52.046;6.314;2023-02-25T16:06:16;4.53;;;1.27;;
10851;SDS011;5479;52.046;6.314;2023-02-25T16:08:48;3.53;;;1.20;;
10851;SDS011;5479;52.046;6.314;2023-02-25T16:11:27;3.37;;;1.20;;
10851;SDS011;5479;52.046;6.314;2023-02-25T16:14:02;5.50;;;1.10;;
10851;SDS011;5479;52.046;6.314;2023-02-25T16:16:41;4.50;;;1.10;;
10851;SDS011;5479;52.046;6.314;2023-02-25T16:19:15;3.80;;;1.27;;
10851;SDS011;5479;52.046;6.314;2023-02-25T16:21:47;7.60;;;1.60;;
10851;SDS011;5479;52.046;6.314;2023-02-25T16:24:18;3.80;;;1.23;;
10851;SDS011;5479;52.046;6.314;2023-02-25T16:26:48;2.70;;;1.10;;
10851;SDS011;5479;52.046;6.314;2023-02-25T16:29:27;3.53;;;1.50;;
10851;SDS011;5479;52.046;6.314;2023-02-25T16:32:06;4.63;;;1.50;;
10851;SDS011;5479;52.046;6.314;2023-02-25T16:34:45;3.83;;;1.10;;
10851;SDS011;5479;52.046;6.314;2023-02-25T16:37:26;5.47;;;1.30;;
10851;SDS011;5479;52.046;6.314;2023-02-25T16:40:02;4.77;;;1.47;;
10851;SDS011;5479;52.046;6.314;2023-02-25T16:42:32;3.90;;;1.43;;
10851;SDS011;5479;52.046;6.314;2023-02-25T16:45:02;4.23;;;1.20;;